createdAt,value
2019-01-11T00:02:25.000Z,9.60
2019-01-11T00:04:54.608Z,9.83
2019-01-11T00:07:24.508Z,9.27
2019-01-11T00:09:54.064Z,10.27
2019-01-11T00:12:23.665Z,11.50
2019-01-11T00:14:53.452Z,10.63
2019-01-11T00:17:23.187Z,10.77
2019-01-11T00:19:52.795Z,11.70
2019-01-11T00:22:22.604Z,9.67
2019-01-11T00:24:52.316Z,9.53
2019-01-11T00:27:21.941Z,9.20
2019-01-11T00:29:51.635Z,9.17
2019-01-11T00:32:22.557Z,9.87
2019-01-11T00:34:52.410Z,9.10
2019-01-11T00:37:21.996Z,9.53
2019-01-11T00:39:51.490Z,8.80
2019-01-11T00:42:21.277Z,8.70
2019-01-11T00:44:51.020Z,8.60
2019-01-11T00:47:21.650Z,9.83
2019-01-11T00:49:51.374Z,9.13
2019-01-11T00:52:21.035Z,12.37
2019-01-11T00:54:50.720Z,9.57
2019-01-11T00:57:20.475Z,10.07
2019-01-11T00:59:50.008Z,10.00
2019-01-11T01:02:19.533Z,8.70
2019-01-11T01:04:49.316Z,8.80
2019-01-11T01:07:19.180Z,9.23
2019-01-11T01:09:48.788Z,8.30
2019-01-11T01:12:18.583Z,8.97
2019-01-11T01:14:48.302Z,9.00
2019-01-11T01:17:18.452Z,9.37
2019-01-11T01:19:48.666Z,8.77
2019-01-11T01:22:18.486Z,9.23
2019-01-11T01:24:48.010Z,8.83
2019-01-11T01:27:17.800Z,9.03
2019-01-11T01:29:47.297Z,8.23
2019-01-11T01:32:17.012Z,9.10
2019-01-11T01:34:46.863Z,8.13
2019-01-11T01:37:16.389Z,9.07
2019-01-11T01:39:45.964Z,8.93
2019-01-11T01:42:15.702Z,8.43
2019-01-11T01:44:45.178Z,8.73
2019-01-11T01:47:14.719Z,8.73
2019-01-11T01:49:44.613Z,8.97
2019-01-11T01:52:14.175Z,7.77
2019-01-11T01:54:45.016Z,9.00
2019-01-11T01:57:14.690Z,8.30
2019-01-11T01:59:44.238Z,8.23
2019-01-11T02:02:13.997Z,7.97
2019-01-11T02:04:43.496Z,9.37
2019-01-11T02:07:13.149Z,8.10
2019-01-11T02:09:43.102Z,8.70
2019-01-11T02:12:12.657Z,8.50
2019-01-11T02:14:42.656Z,7.67
2019-01-11T02:17:12.956Z,7.77
2019-01-11T02:19:42.645Z,7.60
2019-01-11T02:22:12.435Z,8.00
2019-01-11T02:24:42.148Z,7.37
2019-01-11T02:27:11.829Z,7.40
2019-01-11T02:29:41.319Z,7.87
2019-01-11T02:32:11.006Z,8.07
2019-01-11T02:34:40.533Z,7.40
2019-01-11T02:37:10.400Z,6.90
2019-01-11T02:39:40.280Z,8.00
2019-01-11T02:42:10.219Z,7.73
2019-01-11T02:44:40.000Z,7.40
2019-01-11T02:47:10.135Z,8.07
2019-01-11T02:49:40.491Z,8.20
2019-01-11T02:52:10.308Z,8.00
2019-01-11T02:54:40.882Z,7.23
2019-01-11T02:57:10.567Z,7.17
2019-01-11T02:59:40.216Z,7.30
2019-01-11T03:02:10.504Z,7.27
2019-01-11T03:04:40.291Z,7.43
2019-01-11T03:07:10.143Z,7.13
2019-01-11T03:09:39.979Z,7.07
2019-01-11T03:12:09.810Z,7.17
2019-01-11T03:14:39.426Z,6.33
2019-01-11T03:17:09.204Z,7.23
2019-01-11T03:19:39.038Z,6.93
2019-01-11T03:22:09.000Z,7.23
2019-01-11T03:24:38.943Z,6.87
2019-01-11T03:27:08.940Z,8.03
2019-01-11T03:29:38.674Z,6.30
2019-01-11T03:32:08.418Z,7.47
2019-01-11T03:34:46.049Z,6.50
2019-01-11T03:37:15.708Z,7.27
2019-01-11T03:39:45.218Z,6.40
2019-01-11T03:42:14.891Z,6.10
2019-01-11T03:44:44.701Z,6.33
2019-01-11T03:47:14.352Z,6.23
2019-01-11T03:49:43.974Z,6.40
2019-01-11T03:52:13.813Z,5.70
2019-01-11T03:54:43.472Z,7.43
2019-01-11T03:57:22.250Z,6.33
2019-01-11T03:59:51.946Z,6.63
2019-01-11T04:02:21.492Z,6.97
2019-01-11T04:04:51.354Z,6.47
2019-01-11T04:07:20.932Z,6.13
2019-01-11T04:09:50.598Z,5.87
2019-01-11T04:12:20.418Z,5.93
2019-01-11T04:14:49.970Z,6.63
2019-01-11T04:17:19.551Z,6.10
2019-01-11T04:19:49.206Z,6.27
2019-01-11T04:22:27.100Z,6.50
2019-01-11T04:25:21.897Z,6.93
2019-01-11T04:27:52.216Z,6.27
2019-01-11T04:30:23.066Z,6.20
2019-01-11T04:32:52.620Z,6.27
2019-01-11T04:35:22.207Z,6.73
2019-01-11T04:37:51.939Z,6.33
2019-01-11T04:40:21.521Z,6.13
2019-01-11T04:42:51.091Z,6.40
2019-01-11T04:45:20.839Z,5.43
2019-01-11T04:47:50.357Z,5.97
2019-01-11T04:50:20.391Z,6.93
2019-01-11T04:52:50.166Z,5.23
2019-01-11T04:55:19.761Z,5.67
2019-01-11T04:57:49.246Z,6.13
2019-01-11T05:00:23.400Z,5.27
2019-01-11T05:02:53.026Z,6.30
2019-01-11T05:05:22.711Z,5.83
2019-01-11T05:07:52.990Z,6.20
2019-01-11T05:10:22.757Z,5.53
2019-01-11T05:12:52.390Z,5.67
2019-01-11T05:15:22.253Z,6.20
2019-01-11T05:17:51.935Z,5.63
2019-01-11T05:20:21.520Z,5.90
2019-01-11T05:22:51.280Z,5.63
2019-01-11T05:25:20.853Z,6.10
2019-01-11T05:27:50.529Z,5.37
2019-01-11T05:30:21.267Z,5.73
2019-01-11T05:32:50.912Z,6.27
2019-01-11T05:35:20.486Z,6.77
2019-01-11T05:37:50.421Z,5.17
2019-01-11T05:40:20.618Z,5.60
2019-01-11T05:42:50.341Z,5.70
2019-01-11T05:45:20.125Z,6.87
2019-01-11T05:47:49.755Z,5.13
2019-01-11T05:50:24.360Z,5.57
2019-01-11T05:52:51.896Z,5.80
2019-01-11T05:55:49.543Z,5.53
2019-01-11T05:58:44.511Z,5.50
2019-01-11T06:01:15.103Z,5.90
2019-01-11T06:03:44.941Z,5.30
2019-01-11T06:06:14.654Z,4.77
2019-01-11T06:08:44.271Z,5.60
2019-01-11T06:11:14.040Z,5.20
2019-01-11T06:13:43.646Z,5.10
2019-01-11T06:16:13.255Z,4.77
2019-01-11T06:18:43.104Z,5.80
2019-01-11T06:21:12.728Z,4.57
2019-01-11T06:23:42.329Z,4.60
2019-01-11T06:26:12.053Z,4.43
2019-01-11T06:28:41.667Z,4.80
2019-01-11T06:31:11.325Z,4.53
2019-01-11T06:33:41.097Z,4.23
2019-01-11T06:36:10.655Z,4.83
2019-01-11T06:38:40.368Z,4.53
2019-01-11T06:41:10.602Z,4.50
2019-01-11T06:43:41.030Z,5.00
2019-01-11T06:46:10.606Z,4.77
2019-01-11T06:48:43.370Z,4.80
2019-01-11T06:51:13.364Z,4.87
2019-01-11T06:53:42.991Z,4.97
2019-01-11T06:56:13.011Z,4.43
2019-01-11T06:58:42.725Z,4.57
2019-01-11T07:01:12.217Z,5.00
2019-01-11T07:03:42.160Z,4.47
2019-01-11T07:06:11.909Z,4.27
2019-01-11T07:08:41.557Z,4.47
2019-01-11T07:11:11.357Z,4.30
2019-01-11T07:13:41.095Z,4.10
2019-01-11T07:16:10.644Z,5.20
2019-01-11T07:18:40.594Z,4.07
2019-01-11T07:21:10.323Z,6.53
2019-01-11T07:23:40.170Z,5.43
2019-01-11T07:26:10.614Z,2.97
2019-01-11T07:28:40.475Z,3.67
2019-01-11T07:31:18.711Z,4.30
2019-01-11T07:33:48.415Z,3.93
2019-01-11T07:36:37.397Z,4.63
2019-01-11T07:39:21.741Z,3.50
2019-01-11T07:41:51.549Z,3.20
2019-01-11T07:44:21.111Z,3.87
2019-01-11T07:46:50.621Z,3.13
2019-01-11T07:49:23.218Z,3.87
2019-01-11T07:51:51.716Z,4.10
2019-01-11T07:54:21.616Z,4.20
2019-01-11T07:56:53.034Z,3.97
2019-01-11T07:59:23.322Z,3.17
2019-01-11T08:01:52.997Z,3.33
2019-01-11T08:04:22.845Z,4.00
2019-01-11T08:06:52.980Z,3.90
2019-01-11T08:09:22.828Z,3.87
2019-01-11T08:11:52.679Z,3.50
2019-01-11T08:14:22.431Z,3.43
2019-01-11T08:16:52.008Z,3.93
2019-01-11T08:19:21.843Z,3.20
2019-01-11T08:21:51.626Z,4.17
2019-01-11T08:24:21.195Z,4.10
2019-01-11T08:26:51.159Z,4.07
2019-01-11T08:29:20.989Z,3.80
2019-01-11T08:31:50.669Z,3.30
2019-01-11T08:34:20.295Z,3.53
2019-01-11T08:36:50.069Z,3.73
2019-01-11T08:39:19.644Z,3.77
2019-01-11T08:41:49.108Z,5.13
2019-01-11T08:44:18.914Z,4.30
2019-01-11T08:46:48.549Z,3.63
2019-01-11T08:49:18.055Z,4.37
2019-01-11T08:51:47.931Z,3.53
2019-01-11T08:54:17.648Z,3.90
2019-01-11T08:56:47.370Z,4.33
2019-01-11T08:59:17.129Z,4.77
2019-01-11T09:01:46.711Z,5.93
2019-01-11T09:04:16.333Z,5.93
2019-01-11T09:06:46.126Z,4.53
2019-01-11T09:09:15.687Z,4.57
2019-01-11T09:11:45.359Z,4.80
2019-01-11T09:14:47.237Z,3.93
2019-01-11T09:17:18.947Z,4.30
2019-01-11T09:19:48.837Z,3.17
2019-01-11T09:22:18.467Z,3.40
2019-01-11T09:24:48.257Z,3.53
2019-01-11T09:27:18.084Z,3.20
2019-01-11T09:29:47.797Z,3.80
2019-01-11T09:32:17.407Z,3.07
2019-01-11T09:34:47.298Z,3.10
2019-01-11T09:37:16.826Z,3.67
2019-01-11T09:39:46.521Z,3.47
2019-01-11T09:42:16.200Z,3.60
2019-01-11T09:44:45.854Z,3.40
2019-01-11T09:47:15.362Z,2.90
2019-01-11T09:49:45.049Z,3.23
2019-01-11T09:52:14.658Z,3.63
2019-01-11T09:54:44.235Z,3.50
2019-01-11T09:57:13.920Z,3.73
2019-01-11T09:59:43.504Z,3.57
2019-01-11T10:02:32.196Z,3.47
2019-01-11T10:05:02.086Z,3.63
2019-01-11T10:07:31.788Z,3.33
2019-01-11T10:10:01.578Z,3.20
2019-01-11T10:12:31.167Z,3.00
2019-01-11T10:15:00.734Z,3.60
2019-01-11T10:17:30.559Z,4.13
2019-01-11T10:20:00.301Z,4.73
2019-01-11T10:22:29.935Z,4.00
2019-01-11T10:24:59.711Z,3.57
2019-01-11T10:27:29.394Z,3.33
2019-01-11T10:29:59.234Z,3.43
2019-01-11T10:32:28.972Z,3.70
2019-01-11T10:34:58.538Z,3.33
2019-01-11T10:37:28.338Z,3.07
2019-01-11T10:39:58.210Z,4.77
2019-01-11T10:42:27.790Z,3.40
2019-01-11T10:44:57.517Z,3.70
2019-01-11T10:47:27.397Z,9.40
2019-01-11T10:49:57.063Z,3.57
2019-01-11T10:52:26.707Z,3.33
2019-01-11T10:54:57.750Z,3.50
2019-01-11T10:57:27.396Z,3.47
2019-01-11T10:59:57.047Z,3.83
2019-01-11T11:02:27.052Z,3.70
2019-01-11T11:04:56.686Z,3.77
2019-01-11T11:07:26.341Z,3.87
2019-01-11T11:09:56.108Z,3.40
2019-01-11T11:12:25.763Z,4.40
2019-01-11T11:14:55.322Z,4.23
2019-01-11T11:17:25.117Z,4.30
2019-01-11T11:19:55.100Z,3.63
2019-01-11T11:22:24.839Z,4.20
2019-01-11T11:24:54.669Z,3.37
2019-01-11T11:27:24.263Z,4.13
2019-01-11T11:29:53.907Z,4.53
2019-01-11T11:32:32.983Z,3.43
2019-01-11T11:35:02.606Z,3.13
2019-01-11T11:37:32.210Z,2.80
2019-01-11T11:40:02.206Z,3.00
2019-01-11T11:42:31.918Z,2.80
2019-01-11T11:45:01.588Z,2.97
2019-01-11T11:47:31.464Z,2.43
2019-01-11T11:50:01.163Z,3.47
2019-01-11T11:52:30.716Z,3.67
2019-01-11T11:55:00.490Z,3.77
2019-01-11T11:57:30.176Z,3.37
2019-01-11T12:00:00.021Z,2.80
2019-01-11T12:02:29.764Z,3.00
2019-01-11T12:04:59.492Z,3.00
2019-01-11T12:07:29.247Z,2.80
2019-01-11T12:09:58.979Z,2.83
2019-01-11T12:12:28.600Z,3.27
2019-01-11T12:14:58.185Z,2.73
2019-01-11T12:17:28.080Z,3.60
2019-01-11T12:19:57.650Z,3.27
2019-01-11T12:22:27.380Z,4.17
2019-01-11T12:24:57.158Z,4.80
2019-01-11T12:27:26.815Z,3.57
2019-01-11T12:29:56.472Z,3.60
2019-01-11T12:32:26.200Z,3.53
2019-01-11T12:34:55.801Z,3.37
2019-01-11T12:37:25.398Z,3.53
2019-01-11T12:39:55.429Z,3.17
2019-01-11T12:42:25.043Z,4.07
2019-01-11T12:44:54.799Z,3.23
2019-01-11T12:47:24.616Z,3.87
2019-01-11T12:49:54.177Z,2.83
2019-01-11T12:52:23.838Z,3.67
2019-01-11T12:54:53.635Z,3.43
2019-01-11T12:57:23.259Z,3.20
2019-01-11T12:59:52.809Z,2.67
2019-01-11T13:02:22.492Z,2.73
2019-01-11T13:04:52.225Z,2.87
2019-01-11T13:07:21.753Z,2.40
2019-01-11T13:09:51.459Z,3.20
2019-01-11T13:12:21.221Z,2.63
2019-01-11T13:14:50.854Z,3.13
2019-01-11T13:17:20.800Z,3.17
2019-01-11T13:19:50.442Z,2.50
2019-01-11T13:22:20.246Z,3.37
2019-01-11T13:24:50.180Z,2.60
2019-01-11T13:27:19.873Z,3.17
2019-01-11T13:29:49.455Z,3.30
2019-01-11T13:32:19.253Z,2.80
2019-01-11T13:34:48.920Z,2.33
2019-01-11T13:37:18.610Z,1.93
2019-01-11T13:39:48.527Z,2.33
2019-01-11T13:42:18.537Z,2.00
2019-01-11T13:44:48.202Z,1.60
2019-01-11T13:47:18.138Z,1.57
2019-01-11T13:49:47.735Z,2.73
2019-01-11T13:52:17.395Z,1.73
2019-01-11T13:54:49.949Z,1.77
2019-01-11T13:57:19.579Z,1.60
2019-01-11T13:59:49.119Z,1.63
2019-01-11T14:02:18.989Z,1.90
2019-01-11T14:04:48.628Z,1.47
2019-01-11T14:07:18.211Z,1.90
2019-01-11T14:09:48.090Z,1.37
2019-01-11T14:12:17.753Z,1.87
2019-01-11T14:14:47.498Z,1.37
2019-01-11T14:17:17.254Z,1.60
2019-01-11T14:19:47.282Z,1.50
2019-01-11T14:22:16.920Z,1.40
2019-01-11T14:24:46.726Z,1.50
2019-01-11T14:27:16.298Z,1.73
2019-01-11T14:29:46.027Z,1.60
2019-01-11T14:32:16.138Z,1.20
2019-01-11T14:34:45.766Z,1.80
2019-01-11T14:37:15.354Z,1.50
2019-01-11T14:39:45.025Z,1.50
2019-01-11T14:42:14.661Z,1.60
2019-01-11T14:44:44.424Z,1.40
2019-01-11T14:47:14.141Z,1.60
2019-01-11T14:49:43.677Z,1.93
2019-01-11T14:52:20.143Z,1.70
2019-01-11T14:54:45.063Z,1.60
2019-01-11T14:57:14.975Z,1.97
2019-01-11T14:59:44.465Z,2.17
2019-01-11T15:02:14.269Z,2.10
2019-01-11T15:04:44.049Z,2.00
2019-01-11T15:07:13.715Z,2.20
2019-01-11T15:09:43.445Z,2.00
2019-01-11T15:12:13.153Z,1.80
2019-01-11T15:14:42.801Z,1.80
2019-01-11T15:17:12.700Z,2.80
2019-01-11T15:19:42.536Z,2.73
2019-01-11T15:22:12.136Z,3.13
2019-01-11T15:24:41.960Z,3.30
2019-01-11T15:27:11.507Z,3.80
2019-01-11T15:29:41.245Z,3.50
2019-01-11T15:32:10.982Z,3.77
2019-01-11T15:34:40.835Z,5.00
2019-01-11T15:37:10.487Z,4.20
2019-01-11T15:39:40.420Z,3.60
2019-01-11T15:42:10.082Z,4.40
2019-01-11T15:44:40.054Z,3.80
2019-01-11T15:47:10.293Z,3.60
2019-01-11T15:49:40.112Z,3.10
2019-01-11T15:52:09.886Z,2.50
2019-01-11T15:54:39.788Z,2.80
2019-01-11T15:57:09.529Z,2.47
2019-01-11T16:00:04.461Z,2.90
2019-01-11T16:02:34.197Z,3.40
2019-01-11T16:05:03.834Z,3.33
2019-01-11T16:07:33.995Z,4.83
2019-01-11T16:10:09.657Z,4.07
2019-01-11T16:12:59.187Z,3.53
2019-01-11T16:16:27.568Z,3.70
2019-01-11T16:18:58.571Z,4.27
2019-01-11T16:21:28.275Z,3.80
2019-01-11T16:23:58.005Z,3.10
2019-01-11T16:26:27.703Z,2.80
2019-01-11T16:28:57.390Z,2.57
2019-01-11T16:31:27.139Z,2.07
2019-01-11T16:33:56.843Z,2.27
2019-01-11T16:36:26.631Z,2.60
2019-01-11T16:38:56.273Z,2.00
2019-01-11T16:41:26.275Z,2.47
2019-01-11T16:43:55.985Z,2.70
2019-01-11T16:46:25.625Z,4.83
2019-01-11T16:48:55.399Z,4.53
2019-01-11T16:51:25.198Z,6.80
2019-01-11T16:53:54.819Z,5.40
2019-01-11T16:56:24.530Z,4.60
2019-01-11T16:58:54.155Z,3.93
2019-01-11T17:01:24.018Z,4.10
2019-01-11T17:03:54.701Z,4.63
2019-01-11T17:06:24.667Z,8.03
2019-01-11T17:08:54.236Z,5.70
2019-01-11T17:11:24.151Z,5.13
2019-01-11T17:13:53.841Z,5.17
2019-01-11T17:16:23.597Z,3.83
2019-01-11T17:18:53.624Z,3.53
2019-01-11T17:21:23.536Z,4.30
2019-01-11T17:23:53.149Z,3.93
2019-01-11T17:26:23.137Z,4.03
2019-01-11T17:28:52.745Z,3.87
2019-01-11T17:31:22.402Z,4.23
2019-01-11T17:33:52.081Z,3.03
2019-01-11T17:36:21.648Z,3.57
2019-01-11T17:38:51.284Z,5.03
2019-01-11T17:41:21.050Z,5.30
2019-01-11T17:43:50.676Z,5.90
2019-01-11T17:46:20.223Z,6.57
2019-01-11T17:48:50.013Z,6.63
2019-01-11T17:51:19.738Z,3.70
2019-01-11T17:53:49.293Z,4.93
2019-01-11T17:56:18.966Z,4.17
2019-01-11T17:58:48.593Z,4.17
2019-01-11T18:01:18.268Z,4.00
2019-01-11T18:03:48.044Z,5.77
2019-01-11T18:06:17.574Z,4.33
2019-01-11T18:08:47.151Z,4.80
2019-01-11T18:11:17.074Z,7.37
2019-01-11T18:13:46.730Z,7.47
2019-01-11T18:16:16.464Z,7.17
2019-01-11T18:18:46.135Z,7.23
2019-01-11T18:21:15.780Z,6.30
2019-01-11T18:23:45.524Z,7.17
2019-01-11T18:26:15.650Z,7.17
2019-01-11T18:28:45.200Z,5.30
2019-01-11T18:31:15.656Z,6.27
2019-01-11T18:33:45.525Z,6.43
2019-01-11T18:36:15.207Z,6.80
2019-01-11T18:38:44.767Z,6.80
2019-01-11T18:41:14.560Z,7.37
2019-01-11T18:43:44.384Z,4.47
2019-01-11T18:46:14.092Z,4.30
2019-01-11T18:48:44.017Z,6.10
2019-01-11T18:51:13.602Z,6.07
2019-01-11T18:53:43.101Z,5.90
2019-01-11T18:56:13.024Z,5.60
2019-01-11T18:58:42.681Z,7.03
2019-01-11T19:01:12.353Z,6.60
2019-01-11T19:03:42.111Z,7.27
2019-01-11T19:06:13.827Z,6.90
2019-01-11T19:08:43.803Z,6.47
2019-01-11T19:11:13.586Z,5.47
2019-01-11T19:13:43.164Z,4.50
2019-01-11T19:16:12.993Z,4.90
2019-01-11T19:18:42.812Z,5.37
2019-01-11T19:21:14.080Z,4.30
2019-01-11T19:23:43.733Z,5.10
2019-01-11T19:26:13.438Z,3.20
2019-01-11T19:28:43.415Z,5.80
2019-01-11T19:31:13.114Z,3.97
2019-01-11T19:33:43.147Z,4.47
2019-01-11T19:36:12.998Z,5.60
2019-01-11T19:38:42.734Z,5.53
2019-01-11T19:41:12.388Z,6.37
2019-01-11T19:43:42.681Z,5.53
2019-01-11T19:46:12.392Z,6.20
2019-01-11T19:48:42.483Z,6.20
2019-01-11T19:51:12.388Z,6.50
2019-01-11T19:53:42.013Z,6.17
2019-01-11T19:56:11.665Z,5.50
2019-01-11T19:58:41.995Z,6.60
2019-01-11T20:01:12.213Z,8.03
2019-01-11T20:03:42.203Z,5.83
2019-01-11T20:06:12.117Z,6.67
2019-01-11T20:08:42.122Z,6.93
2019-01-11T20:11:11.999Z,9.37
2019-01-11T20:13:41.925Z,7.47
2019-01-11T20:16:11.592Z,7.30
2019-01-11T20:18:41.431Z,8.13
2019-01-11T20:21:11.486Z,8.83
2019-01-11T20:23:42.396Z,9.90
2019-01-11T20:26:12.288Z,9.20
2019-01-11T20:28:42.140Z,9.77
2019-01-11T20:31:11.684Z,5.80
2019-01-11T20:33:41.707Z,6.40
2019-01-11T20:36:11.601Z,6.17
2019-01-11T20:38:41.403Z,6.37
2019-01-11T20:41:11.490Z,4.97
2019-01-11T20:43:41.215Z,4.83
2019-01-11T20:46:11.555Z,4.83
2019-01-11T20:48:41.919Z,4.80
2019-01-11T20:51:11.787Z,7.17
2019-01-11T20:53:42.044Z,8.90
2019-01-11T20:56:11.974Z,8.10
2019-01-11T20:58:41.589Z,8.40
2019-01-11T21:01:12.313Z,10.23
2019-01-11T21:03:42.554Z,9.83
2019-01-11T21:06:12.135Z,9.97
2019-01-11T21:08:41.875Z,8.17
2019-01-11T21:11:11.743Z,7.50
2019-01-11T21:13:41.609Z,6.47
2019-01-11T21:16:12.023Z,6.83
2019-01-11T21:18:41.769Z,5.00
2019-01-11T21:21:11.650Z,5.90
2019-01-11T21:23:48.415Z,5.93
2019-01-11T21:26:13.002Z,5.47
2019-01-11T21:28:42.871Z,5.53
2019-01-11T21:31:12.747Z,5.00
2019-01-11T21:33:42.317Z,4.97
2019-01-11T21:36:12.268Z,4.80
2019-01-11T21:38:42.124Z,4.50
2019-01-11T21:41:11.685Z,4.03
2019-01-11T21:43:41.723Z,4.50
2019-01-11T21:46:11.425Z,4.35
2019-01-11T21:48:41.423Z,4.50
2019-01-11T21:51:11.562Z,4.47
2019-01-11T21:53:41.367Z,4.40
2019-01-11T21:56:11.157Z,4.27
2019-01-11T21:58:41.270Z,3.90
2019-01-11T22:01:10.986Z,4.07
2019-01-11T22:03:40.624Z,4.80
2019-01-11T22:06:10.688Z,5.93
2019-01-11T22:08:41.854Z,5.83
2019-01-11T22:11:11.597Z,7.57
2019-01-11T22:13:41.462Z,7.72
2019-01-11T22:16:11.248Z,8.50
2019-01-11T22:18:41.250Z,8.70
2019-01-11T22:21:11.093Z,9.07
2019-01-11T22:23:40.849Z,8.33
2019-01-11T22:26:10.566Z,9.27
2019-01-11T22:28:40.387Z,9.20
2019-01-11T22:31:10.238Z,9.97
2019-01-11T22:33:40.134Z,7.97
2019-01-11T22:36:09.900Z,9.40
2019-01-11T22:38:39.744Z,9.10
2019-01-11T22:41:09.587Z,8.73
2019-01-11T22:43:39.222Z,8.17
2019-01-11T22:46:08.958Z,5.30
2019-01-11T22:48:38.710Z,5.78
2019-01-11T22:51:08.456Z,6.40
2019-01-11T22:53:38.132Z,7.90
2019-01-11T22:56:08.081Z,8.57
2019-01-11T22:58:37.969Z,8.33
2019-01-11T23:01:54.582Z,8.53
2019-01-11T23:04:24.232Z,8.87
2019-01-11T23:07:20.636Z,9.63
2019-01-11T23:09:56.970Z,9.50
2019-01-11T23:13:02.135Z,9.50
2019-01-11T23:15:34.752Z,9.13
2019-01-11T23:18:24.663Z,9.87
2019-01-11T23:20:57.089Z,8.90
2019-01-11T23:23:26.806Z,8.93
2019-01-11T23:25:56.469Z,6.57
2019-01-11T23:28:26.135Z,5.83
2019-01-11T23:30:56.006Z,5.80
2019-01-11T23:33:25.577Z,4.87
2019-01-11T23:35:55.282Z,4.50
2019-01-11T23:38:25.129Z,4.60
2019-01-11T23:40:54.891Z,4.30
2019-01-11T23:43:24.499Z,5.00
2019-01-11T23:45:54.318Z,6.87
2019-01-11T23:48:23.856Z,6.80
2019-01-11T23:50:53.457Z,5.80
2019-01-11T23:53:23.319Z,7.10
2019-01-11T23:55:53.101Z,5.93
2019-01-11T23:58:22.763Z,7.13
